LGKF/EFL METAR and TAF weather

Enter ICAO airport designator
Station Type Date Time Source
LGKF METAR 2019/08/25 07:50 UTC NOAA

LGKF 250750Z 00000KT CAVOK 32/19 Q1014


Station Type Date Time Source
LGKF Decoded METAR 2019/08/25 07:50 UTC NOAA

Station name not available
Aug 25, 2019 - 03:50 AM EDT / 2019.08.25 0750 UTC
Wind: Calm:0
Visibility: greater than 7 mile(s):0
Temperature: 89 F (32 C)
Dew Point: 66 F (19 C)
Relative Humidity: 46%
Pressure (altimeter): 29.94 in. Hg (1014 hPa)
ob: LGKF 250750Z 00000KT CAVOK 32/19 Q1014
cycle: 8

Station Type Date Time Source
LGKF TAF 2011/03/20 15:06 UTC NOAA

TAF LGKF 201400Z 2015/2103 05012KT 9999 FEW020 SCT080 PROB30
TEMPO 2015/2003 6000 RA SCT020 BKN060 PROB30
TEMPO 2015/2021 4000 TSRA SCT015 FEW018CB BKN025

Example: see airport list